KCDS/CDS METAR and TAF weather

Enter ICAO airport designator
Station Type Date Time Source
KCDS METAR 2019/05/27 09:53 UTC NOAA

KCDS 270953Z AUTO 16009KT 10SM CLR 20/18 A2983 RMK AO2 SLP079 T02000183 PNO $


Station Type Date Time Source
KCDS Decoded METAR 2019/05/27 09:53 UTC NOAA

CHILDRESS MUNICIPAL AIRPORT, TX, United States (KCDS) 34-26N 100-17W 594M
May 27, 2019 - 05:53 AM EDT / 2019.05.27 0953 UTC
Wind: from the SSE (160 degrees) at 10 MPH (9 KT):0
Visibility: 10 mile(s):0
Sky conditions: clear
Temperature: 68.0 F (20.0 C)
Dew Point: 64.9 F (18.3 C)
Relative Humidity: 89%
Pressure (altimeter): 29.83 in. Hg (1010 hPa)
ob: KCDS 270953Z AUTO 16009KT 10SM CLR 20/18 A2983 RMK AO2 SLP079 T02000183 PNO
cycle: 10

Station Type Date Time Source
KCDS TAF 2019/05/27 06:33 UTC NOAA

TAF KCDS 270530Z 2706/2806 15011KT P6SM SCT250
FM271300 17011KT 6SM BR SCT005 BKN015
FM271600 19017KT P6SM SCT050

Example: see airport list